MGGT/GUA METAR and TAF weather

Enter ICAO airport designator
Station Type Date Time Source
MGGT METAR 2020/04/07 16:00 UTC NOAA

MGGT 071600Z 36014KT 8000 SCT200 26/14 Q1028 A3036 HZ


Station Type Date Time Source
MGGT Decoded METAR 2020/04/07 16:00 UTC NOAA

Guatemala Aeropuertola Aurora , Guatemala (MGGT) 14-35N 090-31W 1489M
Apr 07, 2020 - 12:00 PM EDT / 2020.04.07 1600 UTC
Wind: from the N (360 degrees) at 16 MPH (14 KT):0
Visibility: 4 mile(s):0
Sky conditions: partly cloudy
Temperature: 78 F (26 C)
Dew Point: 57 F (14 C)
Relative Humidity: 47%
Pressure (altimeter): 30.36 in. Hg (1028 hPa)
ob: MGGT 071600Z 36014KT 8000 SCT200 26/14 Q1028 A3036 HZ
cycle: 16

Station Type Date Time Source
MGGT TAF 2020/04/07 12:49 UTC NOAA

TAF MGGT 071100Z 0712/0812 02008KT CAVOK TX30/0720Z TN16/0712Z
BECMG 0715/0717 8000 FEW018
BECMG 0718/0720 18010KT FEW020
BECMG 0801/0803 VRB03KT 9999 SCT016 PROB30 008/0812 00000KT 6000 SCT012

Example: see airport list